Portada
METAR-TAF:

METAR-TAF

Aeroports :

Riberalta, Bolívia

latitud: 11-00S, longitud: 066-07W, altitud: 141 m

Observació

L'informe es va fer fa 1 hora i 8 minuts, a les 22:00 UTC
Vent 5 kt del Est
Temperatura 35°C
Humitat 47%
Pressió 1006 hPa
Visibilitat: 8000 m
Escasses núvols a una alçada de 2000 ft
Escasses núvols a una alçada de 2300 ft, Cumulonimbus.
Cel ennuvolat a una alçada de 20000 ft

METAR: SLRI 242200Z 09005KT 8000 FEW020 FEW023CB BKN200 35/22 Q1006

Hora: 19:08 (23:08 UTC)


TAF: manca

Observacions i pronòstics meteorològics de més de 4000 aeroports (METAR i TAF).

Les estacions disponibles són els punts grocs i vermells al mapa.

Posi el ratolí al punt desitjat per veure el nom de l'estació.

Feu clic per veure les observacions i els pronòstics meteorològics.

Per canviar el mapa: feu clic els botons verds amb una creu de color negre per apropar; al botó verd amb un guió per allunyar la imatge; o en les fletxes verdes per a mapes adjacents.


METAR-TAF: